Dana Point, CA (92629)

11:03 PM PDT on October 24, 2014 (GMT -0700)
Strands Beach | Change Station
CLOSE
Current Station
Personal Weather Station
Location: Dana Point, CA
Elevation: 74 ft
Nearby Weather Stations
Active Advisory: Beach Hazard Statement

Elev 74 ft 33.47 °N, 117.72 °W | Updated 2 seconds ago

Clear
Clear
65.3 °F
Feels Like 65.3 °F
N
0.0
Wind Variable Wind from West
Gusts 0.0 mph

Today
High -- | Low -- °F
--% Chance of Precip.
Yesterday
High -- | Low -- °F
Precip. -- in
7:02 AM 6:06 PM
New Moon, 2% visible
Pressure 30.00 in
Visibility 10.0 miles
Clouds Clear
Dew Point 62 °F
Humidity 89%
Rainfall 0.01 in
Snow Depth Not available.
UV 0 out of 12
Pollen 4.10 out of 12
Ozone Good
Flu Activity Sporadic
METAR KSNA 250553Z 00000KT 10SM CLR 22/18 A3000 RMK AO2 SLP157 T02170178 10272 20217 51019

More Conditions Fewer Conditions

Pressure 30.00 in
Visibility 10.0 miles
Clouds Clear
Dew Point 62 °F
Humidity 89%
Rainfall 0.01 in
Snow Depth Not available.
UV 0 out of 12
Pollen 4.10 out of 12
Ozone Good
Flu Activity Sporadic
METAR KSNA 250553Z 00000KT 10SM CLR 22/18 A3000 RMK AO2 SLP157 T02170178 10272 20217 51019

More Conditions Fewer Conditions

10-Day Weather Forecast

Almanac

Astronomy

Oct. 24, 2014 Rise Set
Actual Time 7:02 AM PDT 6:06 PM PDT
Civil Twilight 6:37 AM PDT 6:32 PM PDT
Nautical Twilight 6:08 AM PDT 7:01 PM PDT
Astronomical Twilight 5:39 AM PDT 7:29 PM PDT
Moon 7:44 AM PDT (10/24) 6:52 PM PDT (10/24)
Length of Visible Light 11h 54m
Length of Day
11h 03m
Tomorrow will be 1m 54s shorter.
New Moon, 2% of the Moon is Illuminated
Oct 25
New Moon
Oct 30
First Quarter
Nov 6
Full
Nov 14
Last Quarter
Nov 22
New

Yesterday's Extremes

State Highs State Lows

Community

WunderPhotos

Upload Photos

1,764,785 photos uploaded!

Nearby

Air Quality

  Air Quality AQ Index Pollutant
Yesterday Moderate
OZONE
Current Good
OZONE
Saturday Good
PM10
Saturday Good
OZONE
Saturday Good
CO
Saturday Good
NO2

Snow Depth

Station Depth Elevation
Virginia Lakes Ridge 0 in 9200 ft
Leavitt Lake 1 in 9400 ft
Leavitt Meadows 1 in 7200 ft
Summit Meadow 1 in 9122 ft
Monitor Pass 1 in 8350 ft

Earthquake Activity

City Distance Mag. Time & Date
Maneadero, Mexico 167 miles 2.5 7:44 AM PDT
2014-10-24
Brea, California 32 miles 2.9 3:35 PM PDT
2014-10-23
Brea, California 32 miles 2.8 3:34 PM PDT
2014-10-23
Corona, California 26 miles 2.5 1:09 PM PDT
2014-10-23
Minimum magnitude displayed is 2.5.

Coastal Water Temperatures

Place Temperature
Santa Monica Pier 69.1 °F
Los Angeles, CA 69.1 °F
La Jolla, CA 71.1 °F

Nearby Weather Stations